sensor_id;sensor_type;location;lat;lon;timestamp;temperature;humidity
67974;DHT22;54756;51.140;6.952;2023-01-20T00:00:27;0.60;93.00
67974;DHT22;54756;51.140;6.952;2023-01-20T00:02:28;0.60;93.00
67974;DHT22;54756;51.140;6.952;2023-01-20T00:04:28;0.70;93.00
67974;DHT22;54756;51.140;6.952;2023-01-20T00:06:29;0.70;93.00
67974;DHT22;54756;51.140;6.952;2023-01-20T00:08:29;0.60;93.00
67974;DHT22;54756;51.140;6.952;2023-01-20T00:10:30;0.60;93.00
67974;DHT22;54756;51.140;6.952;2023-01-20T00:12:31;0.60;93.00
67974;DHT22;54756;51.140;6.952;2023-01-20T00:14:31;0.60;93.00
67974;DHT22;54756;51.140;6.952;2023-01-20T00:16:32;0.60;93.00
67974;DHT22;54756;51.140;6.952;2023-01-20T00:18:33;0.50;92.90
67974;DHT22;54756;51.140;6.952;2023-01-20T00:20:34;0.50;92.90
67974;DHT22;54756;51.140;6.952;2023-01-20T00:22:34;0.50;92.90
67974;DHT22;54756;51.140;6.952;2023-01-20T00:24:41;0.50;92.90
67974;DHT22;54756;51.140;6.952;2023-01-20T00:26:41;0.50;92.90
67974;DHT22;54756;51.140;6.952;2023-01-20T00:28:43;0.60;93.00
67974;DHT22;54756;51.140;6.952;2023-01-20T00:30:49;0.50;92.90
67974;DHT22;54756;51.140;6.952;2023-01-20T00:32:50;0.50;92.90
67974;DHT22;54756;51.140;6.952;2023-01-20T00:34:51;0.50;92.90
67974;DHT22;54756;51.140;6.952;2023-01-20T00:36:51;0.50;92.90
67974;DHT22;54756;51.140;6.952;2023-01-20T00:38:52;0.60;93.00
67974;DHT22;54756;51.140;6.952;2023-01-20T00:40:54;0.60;93.00
67974;DHT22;54756;51.140;6.952;2023-01-20T00:42:54;0.60;93.00
67974;DHT22;54756;51.140;6.952;2023-01-20T00:44:55;0.70;93.00
67974;DHT22;54756;51.140;6.952;2023-01-20T00:46:55;0.70;93.00
67974;DHT22;54756;51.140;6.952;2023-01-20T00:48:56;0.80;93.00
67974;DHT22;54756;51.140;6.952;2023-01-20T00:50:56;0.80;93.10
67974;DHT22;54756;51.140;6.952;2023-01-20T00:52:57;0.90;93.30
67974;DHT22;54756;51.140;6.952;2023-01-20T00:54:58;0.90;93.30
67974;DHT22;54756;51.140;6.952;2023-01-20T00:56:58;1.00;93.30
67974;DHT22;54756;51.140;6.952;2023-01-20T00:58:59;1.00;93.30
67974;DHT22;54756;51.140;6.952;2023-01-20T01:00:59;1.00;93.30
67974;DHT22;54756;51.140;6.952;2023-01-20T01:03:00;1.10;93.40
67974;DHT22;54756;51.140;6.952;2023-01-20T01:05:00;1.10;93.40
67974;DHT22;54756;51.140;6.952;2023-01-20T01:07:01;1.20;93.40
67974;DHT22;54756;51.140;6.952;2023-01-20T01:09:01;1.20;93.50
67974;DHT22;54756;51.140;6.952;2023-01-20T01:11:03;1.20;93.40
67974;DHT22;54756;51.140;6.952;2023-01-20T01:13:04;1.30;93.40
67974;DHT22;54756;51.140;6.952;2023-01-20T01:15:05;1.30;93.80
67974;DHT22;54756;51.140;6.952;2023-01-20T01:17:06;1.30;93.40
67974;DHT22;54756;51.140;6.952;2023-01-20T01:19:07;1.40;93.30
67974;DHT22;54756;51.140;6.952;2023-01-20T01:21:09;1.40;93.30
67974;DHT22;54756;51.140;6.952;2023-01-20T01:23:11;1.40;93.30
67974;DHT22;54756;51.140;6.952;2023-01-20T01:25:11;1.40;93.30
67974;DHT22;54756;51.140;6.952;2023-01-20T01:27:12;1.40;93.30
67974;DHT22;54756;51.140;6.952;2023-01-20T01:29:12;1.40;93.30
67974;DHT22;54756;51.140;6.952;2023-01-20T01:31:13;1.40;93.30
67974;DHT22;54756;51.140;6.952;2023-01-20T01:33:14;1.40;93.30
67974;DHT22;54756;51.140;6.952;2023-01-20T01:35:15;1.40;93.30
67974;DHT22;54756;51.140;6.952;2023-01-20T01:37:15;1.50;93.30
67974;DHT22;54756;51.140;6.952;2023-01-20T01:39:16;1.50;93.20
67974;DHT22;54756;51.140;6.952;2023-01-20T01:41:17;1.50;93.20
67974;DHT22;54756;51.140;6.952;2023-01-20T01:43:31;1.50;93.20
67974;DHT22;54756;51.140;6.952;2023-01-20T01:45:32;1.60;93.20
67974;DHT22;54756;51.140;6.952;2023-01-20T01:47:33;1.60;93.10
67974;DHT22;54756;51.140;6.952;2023-01-20T01:49:33;1.60;93.00
67974;DHT22;54756;51.140;6.952;2023-01-20T01:51:41;1.60;92.90
67974;DHT22;54756;51.140;6.952;2023-01-20T01:53:49;1.60;92.80
67974;DHT22;54756;51.140;6.952;2023-01-20T01:55:56;1.60;92.70
67974;DHT22;54756;51.140;6.952;2023-01-20T01:57:58;1.60;92.60
67974;DHT22;54756;51.140;6.952;2023-01-20T02:00:00;1.50;92.40
67974;DHT22;54756;51.140;6.952;2023-01-20T02:02:01;1.50;92.30
67974;DHT22;54756;51.140;6.952;2023-01-20T02:04:14;1.40;92.20
67974;DHT22;54756;51.140;6.952;2023-01-20T02:06:15;1.40;92.10
67974;DHT22;54756;51.140;6.952;2023-01-20T02:08:18;1.40;92.00
67974;DHT22;54756;51.140;6.952;2023-01-20T02:10:19;1.30;91.90
67974;DHT22;54756;51.140;6.952;2023-01-20T02:12:20;1.30;92.00
67974;DHT22;54756;51.140;6.952;2023-01-20T02:14:25;1.30;92.00
67974;DHT22;54756;51.140;6.952;2023-01-20T02:23:57;1.30;91.60
67974;DHT22;54756;51.140;6.952;2023-01-20T02:28:49;1.20;91.50
67974;DHT22;54756;51.140;6.952;2023-01-20T02:30:57;1.20;91.50
67974;DHT22;54756;51.140;6.952;2023-01-20T02:33:11;1.10;91.40
67974;DHT22;54756;51.140;6.952;2023-01-20T02:35:36;1.00;91.30
67974;DHT22;54756;51.140;6.952;2023-01-20T02:38:04;1.00;91.40
67974;DHT22;54756;51.140;6.952;2023-01-20T02:40:22;1.00;91.60
67974;DHT22;54756;51.140;6.952;2023-01-20T02:42:37;1.10;91.70
67974;DHT22;54756;51.140;6.952;2023-01-20T02:44:56;1.10;91.80
67974;DHT22;54756;51.140;6.952;2023-01-20T02:47:36;1.20;91.90
67974;DHT22;54756;51.140;6.952;2023-01-20T02:52:16;1.30;91.90
67974;DHT22;54756;51.140;6.952;2023-01-20T02:54:19;1.30;91.70
67974;DHT22;54756;51.140;6.952;2023-01-20T02:56:25;1.40;91.70
67974;DHT22;54756;51.140;6.952;2023-01-20T02:58:34;1.40;91.70
67974;DHT22;54756;51.140;6.952;2023-01-20T03:00:41;1.40;91.60
67974;DHT22;54756;51.140;6.952;2023-01-20T03:02:44;1.40;91.50
67974;DHT22;54756;51.140;6.952;2023-01-20T03:04:50;1.40;91.40
67974;DHT22;54756;51.140;6.952;2023-01-20T03:06:53;1.40;91.40
67974;DHT22;54756;51.140;6.952;2023-01-20T03:08:59;1.40;91.40
67974;DHT22;54756;51.140;6.952;2023-01-20T03:11:03;1.40;91.40
67974;DHT22;54756;51.140;6.952;2023-01-20T03:13:29;1.40;91.40
67974;DHT22;54756;51.140;6.952;2023-01-20T03:15:36;1.40;91.40
67974;DHT22;54756;51.140;6.952;2023-01-20T03:17:41;1.40;91.50
67974;DHT22;54756;51.140;6.952;2023-01-20T03:19:41;1.50;91.50
67974;DHT22;54756;51.140;6.952;2023-01-20T03:21:42;1.50;91.50
67974;DHT22;54756;51.140;6.952;2023-01-20T03:23:47;1.50;91.40
67974;DHT22;54756;51.140;6.952;2023-01-20T03:25:48;1.50;91.30
67974;DHT22;54756;51.140;6.952;2023-01-20T03:27:49;1.50;91.30
67974;DHT22;54756;51.140;6.952;2023-01-20T03:29:50;1.50;91.30
67974;DHT22;54756;51.140;6.952;2023-01-20T03:32:01;1.50;91.30
67974;DHT22;54756;51.140;6.952;2023-01-20T03:34:05;1.50;91.30
67974;DHT22;54756;51.140;6.952;2023-01-20T03:36:11;1.60;91.40
67974;DHT22;54756;51.140;6.952;2023-01-20T03:38:12;1.60;91.40
67974;DHT22;54756;51.140;6.952;2023-01-20T03:40:13;1.60;91.40
67974;DHT22;54756;51.140;6.952;2023-01-20T03:46:51;1.70;91.40
67974;DHT22;54756;51.140;6.952;2023-01-20T03:49:06;1.70;91.30
67974;DHT22;54756;51.140;6.952;2023-01-20T03:51:42;1.70;91.30
67974;DHT22;54756;51.140;6.952;2023-01-20T03:54:06;1.80;91.20
67974;DHT22;54756;51.140;6.952;2023-01-20T03:56:24;1.70;91.10
67974;DHT22;54756;51.140;6.952;2023-01-20T03:58:35;1.80;91.20
67974;DHT22;54756;51.140;6.952;2023-01-20T04:00:39;1.80;91.20
67974;DHT22;54756;51.140;6.952;2023-01-20T04:02:42;1.80;91.20
67974;DHT22;54756;51.140;6.952;2023-01-20T04:04:44;1.80;91.20
67974;DHT22;54756;51.140;6.952;2023-01-20T04:06:48;1.80;91.10
67974;DHT22;54756;51.140;6.952;2023-01-20T04:09:02;1.90;91.10
67974;DHT22;54756;51.140;6.952;2023-01-20T04:11:05;1.90;91.10
67974;DHT22;54756;51.140;6.952;2023-01-20T04:13:07;1.90;91.10
67974;DHT22;54756;51.140;6.952;2023-01-20T04:15:09;1.90;91.40
67974;DHT22;54756;51.140;6.952;2023-01-20T04:17:10;2.00;91.10
67974;DHT22;54756;51.140;6.952;2023-01-20T04:19:11;2.00;91.00
67974;DHT22;54756;51.140;6.952;2023-01-20T04:21:34;2.00;91.00
67974;DHT22;54756;51.140;6.952;2023-01-20T04:23:39;2.00;91.00
67974;DHT22;54756;51.140;6.952;2023-01-20T04:25:42;2.00;91.00
67974;DHT22;54756;51.140;6.952;2023-01-20T04:27:42;2.00;91.00
67974;DHT22;54756;51.140;6.952;2023-01-20T04:29:43;2.00;90.90
67974;DHT22;54756;51.140;6.952;2023-01-20T04:31:43;2.10;91.00
67974;DHT22;54756;51.140;6.952;2023-01-20T04:33:44;2.10;91.00
67974;DHT22;54756;51.140;6.952;2023-01-20T04:35:44;2.10;90.90
67974;DHT22;54756;51.140;6.952;2023-01-20T04:37:45;2.10;90.70
67974;DHT22;54756;51.140;6.952;2023-01-20T04:39:45;2.10;90.40
67974;DHT22;54756;51.140;6.952;2023-01-20T04:41:47;2.10;90.40
67974;DHT22;54756;51.140;6.952;2023-01-20T04:43:47;2.10;90.50
67974;DHT22;54756;51.140;6.952;2023-01-20T04:45:48;2.00;90.50
67974;DHT22;54756;51.140;6.952;2023-01-20T04:47:49;2.00;90.40
67974;DHT22;54756;51.140;6.952;2023-01-20T04:49:49;2.00;90.40
67974;DHT22;54756;51.140;6.952;2023-01-20T04:51:50;2.00;90.50
67974;DHT22;54756;51.140;6.952;2023-01-20T04:53:54;2.00;90.40
67974;DHT22;54756;51.140;6.952;2023-01-20T04:55:55;2.00;90.40
67974;DHT22;54756;51.140;6.952;2023-01-20T04:57:55;2.00;90.40
67974;DHT22;54756;51.140;6.952;2023-01-20T04:59:56;2.00;90.40
67974;DHT22;54756;51.140;6.952;2023-01-20T05:01:57;2.00;90.40
67974;DHT22;54756;51.140;6.952;2023-01-20T05:03:57;2.00;90.50
67974;DHT22;54756;51.140;6.952;2023-01-20T05:05:58;2.00;90.50
67974;DHT22;54756;51.140;6.952;2023-01-20T05:07:58;2.00;90.50
67974;DHT22;54756;51.140;6.952;2023-01-20T05:09:59;2.00;90.50
67974;DHT22;54756;51.140;6.952;2023-01-20T05:11:59;2.00;90.60
67974;DHT22;54756;51.140;6.952;2023-01-20T05:14:00;2.00;90.60
67974;DHT22;54756;51.140;6.952;2023-01-20T05:16:00;2.10;90.60
67974;DHT22;54756;51.140;6.952;2023-01-20T05:18:01;2.10;90.60
67974;DHT22;54756;51.140;6.952;2023-01-20T05:20:02;2.10;90.60
67974;DHT22;54756;51.140;6.952;2023-01-20T05:22:02;2.10;90.60
67974;DHT22;54756;51.140;6.952;2023-01-20T05:24:03;2.00;90.40
67974;DHT22;54756;51.140;6.952;2023-01-20T05:26:04;2.00;90.30
67974;DHT22;54756;51.140;6.952;2023-01-20T05:28:05;2.00;90.30
67974;DHT22;54756;51.140;6.952;2023-01-20T05:30:07;2.00;90.40
67974;DHT22;54756;51.140;6.952;2023-01-20T05:32:08;2.00;90.40
67974;DHT22;54756;51.140;6.952;2023-01-20T05:34:09;2.00;90.50
67974;DHT22;54756;51.140;6.952;2023-01-20T05:36:10;2.00;90.40
67974;DHT22;54756;51.140;6.952;2023-01-20T05:38:11;2.00;90.40
67974;DHT22;54756;51.140;6.952;2023-01-20T05:40:12;2.00;90.40
67974;DHT22;54756;51.140;6.952;2023-01-20T05:42:12;2.00;90.40
67974;DHT22;54756;51.140;6.952;2023-01-20T05:44:14;2.00;90.30
67974;DHT22;54756;51.140;6.952;2023-01-20T05:46:15;2.00;90.30
67974;DHT22;54756;51.140;6.952;2023-01-20T05:48:15;2.00;90.30
67974;DHT22;54756;51.140;6.952;2023-01-20T05:50:16;2.00;90.30
67974;DHT22;54756;51.140;6.952;2023-01-20T05:52:16;2.00;90.30
67974;DHT22;54756;51.140;6.952;2023-01-20T05:54:17;2.00;90.30
67974;DHT22;54756;51.140;6.952;2023-01-20T05:56:17;2.10;90.30
67974;DHT22;54756;51.140;6.952;2023-01-20T05:58:18;2.00;90.20
67974;DHT22;54756;51.140;6.952;2023-01-20T06:00:19;2.00;90.20
67974;DHT22;54756;51.140;6.952;2023-01-20T06:02:19;2.00;90.20
67974;DHT22;54756;51.140;6.952;2023-01-20T06:04:20;2.10;90.20
67974;DHT22;54756;51.140;6.952;2023-01-20T06:06:20;2.00;90.20
67974;DHT22;54756;51.140;6.952;2023-01-20T06:08:21;2.00;90.00
67974;DHT22;54756;51.140;6.952;2023-01-20T06:10:22;2.00;90.20
67974;DHT22;54756;51.140;6.952;2023-01-20T06:12:27;2.00;90.00
67974;DHT22;54756;51.140;6.952;2023-01-20T06:14:27;2.00;90.00
67974;DHT22;54756;51.140;6.952;2023-01-20T06:16:28;2.00;90.00
67974;DHT22;54756;51.140;6.952;2023-01-20T06:18:29;2.00;90.00
67974;DHT22;54756;51.140;6.952;2023-01-20T06:20:29;2.00;90.00
67974;DHT22;54756;51.140;6.952;2023-01-20T06:22:30;2.00;90.00
67974;DHT22;54756;51.140;6.952;2023-01-20T06:24:31;2.00;90.00
67974;DHT22;54756;51.140;6.952;2023-01-20T06:26:31;2.00;90.00
67974;DHT22;54756;51.140;6.952;2023-01-20T06:28:32;2.00;90.00
67974;DHT22;54756;51.140;6.952;2023-01-20T06:30:33;2.00;89.90
67974;DHT22;54756;51.140;6.952;2023-01-20T06:32:33;2.00;89.50
67974;DHT22;54756;51.140;6.952;2023-01-20T06:34:34;2.00;89.00
67974;DHT22;54756;51.140;6.952;2023-01-20T06:36:34;2.00;89.00
67974;DHT22;54756;51.140;6.952;2023-01-20T06:38:35;2.00;89.00
67974;DHT22;54756;51.140;6.952;2023-01-20T06:40:35;2.00;89.00
67974;DHT22;54756;51.140;6.952;2023-01-20T06:42:36;1.90;89.20
67974;DHT22;54756;51.140;6.952;2023-01-20T06:44:36;2.00;89.50
67974;DHT22;54756;51.140;6.952;2023-01-20T06:46:37;1.90;89.40
67974;DHT22;54756;51.140;6.952;2023-01-20T06:48:38;2.00;89.60
67974;DHT22;54756;51.140;6.952;2023-01-20T06:50:38;2.00;89.50
67974;DHT22;54756;51.140;6.952;2023-01-20T06:52:39;2.00;89.60
67974;DHT22;54756;51.140;6.952;2023-01-20T06:54:39;2.00;89.50
67974;DHT22;54756;51.140;6.952;2023-01-20T06:56:40;2.00;89.50
67974;DHT22;54756;51.140;6.952;2023-01-20T06:58:40;2.00;89.50
67974;DHT22;54756;51.140;6.952;2023-01-20T07:00:41;2.00;89.00
67974;DHT22;54756;51.140;6.952;2023-01-20T07:02:42;2.00;88.90
67974;DHT22;54756;51.140;6.952;2023-01-20T07:04:42;2.00;88.60
67974;DHT22;54756;51.140;6.952;2023-01-20T07:06:43;2.00;88.60
67974;DHT22;54756;51.140;6.952;2023-01-20T07:08:43;2.00;88.50
67974;DHT22;54756;51.140;6.952;2023-01-20T07:10:44;2.00;88.40
67974;DHT22;54756;51.140;6.952;2023-01-20T07:12:45;1.90;88.00
67974;DHT22;54756;51.140;6.952;2023-01-20T07:14:45;2.00;88.00
67974;DHT22;54756;51.140;6.952;2023-01-20T07:16:46;1.90;87.90
67974;DHT22;54756;51.140;6.952;2023-01-20T07:18:47;1.90;87.90
67974;DHT22;54756;51.140;6.952;2023-01-20T07:20:53;1.90;87.80
67974;DHT22;54756;51.140;6.952;2023-01-20T07:22:53;1.90;87.70
67974;DHT22;54756;51.140;6.952;2023-01-20T07:24:54;1.90;87.60
67974;DHT22;54756;51.140;6.952;2023-01-20T07:26:54;1.90;87.50
67974;DHT22;54756;51.140;6.952;2023-01-20T07:28:57;1.90;87.40
67974;DHT22;54756;51.140;6.952;2023-01-20T07:31:05;1.90;87.40
67974;DHT22;54756;51.140;6.952;2023-01-20T07:33:06;1.90;87.40
67974;DHT22;54756;51.140;6.952;2023-01-20T07:35:06;1.90;86.90
67974;DHT22;54756;51.140;6.952;2023-01-20T07:37:07;1.90;86.60
67974;DHT22;54756;51.140;6.952;2023-01-20T07:39:11;1.90;86.70
67974;DHT22;54756;51.140;6.952;2023-01-20T07:41:12;1.80;86.90
67974;DHT22;54756;51.140;6.952;2023-01-20T07:43:15;1.90;86.90
67974;DHT22;54756;51.140;6.952;2023-01-20T07:45:15;1.90;87.10
67974;DHT22;54756;51.140;6.952;2023-01-20T07:47:16;1.90;87.20
67974;DHT22;54756;51.140;6.952;2023-01-20T07:49:17;1.90;87.10
67974;DHT22;54756;51.140;6.952;2023-01-20T07:51:17;1.90;86.90
67974;DHT22;54756;51.140;6.952;2023-01-20T07:53:18;1.90;86.90
67974;DHT22;54756;51.140;6.952;2023-01-20T07:55:18;1.90;87.00
67974;DHT22;54756;51.140;6.952;2023-01-20T07:57:19;1.90;87.00
67974;DHT22;54756;51.140;6.952;2023-01-20T07:59:19;1.90;86.60
67974;DHT22;54756;51.140;6.952;2023-01-20T08:01:23;1.90;86.60
67974;DHT22;54756;51.140;6.952;2023-01-20T08:03:24;2.00;87.20
67974;DHT22;54756;51.140;6.952;2023-01-20T08:05:25;2.00;87.20
67974;DHT22;54756;51.140;6.952;2023-01-20T08:07:25;2.00;86.40
67974;DHT22;54756;51.140;6.952;2023-01-20T08:09:26;2.10;86.00
67974;DHT22;54756;51.140;6.952;2023-01-20T08:11:27;2.10;86.00
67974;DHT22;54756;51.140;6.952;2023-01-20T08:13:29;2.10;86.00
67974;DHT22;54756;51.140;6.952;2023-01-20T08:15:29;2.00;85.90
67974;DHT22;54756;51.140;6.952;2023-01-20T08:17:30;2.10;86.10
67974;DHT22;54756;51.140;6.952;2023-01-20T08:19:30;2.10;86.00
67974;DHT22;54756;51.140;6.952;2023-01-20T08:21:32;2.10;86.10
67974;DHT22;54756;51.140;6.952;2023-01-20T08:23:33;2.10;86.20
67974;DHT22;54756;51.140;6.952;2023-01-20T08:25:34;2.10;86.30
67974;DHT22;54756;51.140;6.952;2023-01-20T08:27:35;2.10;86.20
67974;DHT22;54756;51.140;6.952;2023-01-20T08:29:35;2.10;86.30
67974;DHT22;54756;51.140;6.952;2023-01-20T08:31:36;2.20;86.20
67974;DHT22;54756;51.140;6.952;2023-01-20T08:33:38;2.20;86.20
67974;DHT22;54756;51.140;6.952;2023-01-20T08:35:39;2.20;86.30
67974;DHT22;54756;51.140;6.952;2023-01-20T08:37:39;2.20;86.10
67974;DHT22;54756;51.140;6.952;2023-01-20T08:39:40;2.20;85.90
67974;DHT22;54756;51.140;6.952;2023-01-20T08:41:42;2.20;86.10
67974;DHT22;54756;51.140;6.952;2023-01-20T08:43:43;2.20;84.50
67974;DHT22;54756;51.140;6.952;2023-01-20T08:45:44;2.30;84.60
67974;DHT22;54756;51.140;6.952;2023-01-20T08:47:44;2.30;84.10
67974;DHT22;54756;51.140;6.952;2023-01-20T08:49:45;2.30;84.10
67974;DHT22;54756;51.140;6.952;2023-01-20T08:51:45;2.30;84.20
67974;DHT22;54756;51.140;6.952;2023-01-20T08:53:46;2.40;84.60
67974;DHT22;54756;51.140;6.952;2023-01-20T08:55:58;2.40;83.80
67974;DHT22;54756;51.140;6.952;2023-01-20T08:58:00;2.50;84.00
67974;DHT22;54756;51.140;6.952;2023-01-20T09:00:01;2.50;84.10
67974;DHT22;54756;51.140;6.952;2023-01-20T09:02:02;2.50;83.60
67974;DHT22;54756;51.140;6.952;2023-01-20T09:04:03;2.60;83.50
67974;DHT22;54756;51.140;6.952;2023-01-20T09:06:05;2.60;83.10
67974;DHT22;54756;51.140;6.952;2023-01-20T09:08:06;2.60;81.70
67974;DHT22;54756;51.140;6.952;2023-01-20T09:10:07;2.60;81.10
67974;DHT22;54756;51.140;6.952;2023-01-20T09:12:08;2.70;81.20
67974;DHT22;54756;51.140;6.952;2023-01-20T09:14:09;2.60;81.50
67974;DHT22;54756;51.140;6.952;2023-01-20T09:16:11;2.70;81.30
67974;DHT22;54756;51.140;6.952;2023-01-20T09:18:12;2.70;81.40
67974;DHT22;54756;51.140;6.952;2023-01-20T09:20:12;2.70;80.50
67974;DHT22;54756;51.140;6.952;2023-01-20T09:22:13;2.70;79.50
67974;DHT22;54756;51.140;6.952;2023-01-20T09:24:14;2.60;79.90
67974;DHT22;54756;51.140;6.952;2023-01-20T09:26:15;2.70;80.80
67974;DHT22;54756;51.140;6.952;2023-01-20T09:28:15;2.70;81.30
67974;DHT22;54756;51.140;6.952;2023-01-20T09:30:16;2.70;81.30
67974;DHT22;54756;51.140;6.952;2023-01-20T09:32:17;2.70;81.20
67974;DHT22;54756;51.140;6.952;2023-01-20T09:34:19;2.80;81.20
67974;DHT22;54756;51.140;6.952;2023-01-20T09:36:23;2.80;80.90
67974;DHT22;54756;51.140;6.952;2023-01-20T09:38:25;2.80;81.10
67974;DHT22;54756;51.140;6.952;2023-01-20T09:46:14;3.00;80.00
67974;DHT22;54756;51.140;6.952;2023-01-20T09:50:54;3.30;78.70
67974;DHT22;54756;51.140;6.952;2023-01-20T09:55:49;3.30;77.30
67974;DHT22;54756;51.140;6.952;2023-01-20T09:58:14;3.40;77.60
67974;DHT22;54756;51.140;6.952;2023-01-20T10:00:20;3.40;77.40
67974;DHT22;54756;51.140;6.952;2023-01-20T10:02:30;3.40;75.80
67974;DHT22;54756;51.140;6.952;2023-01-20T10:04:47;3.30;74.90
67974;DHT22;54756;51.140;6.952;2023-01-20T10:06:51;3.20;73.90
67974;DHT22;54756;51.140;6.952;2023-01-20T10:09:02;3.20;75.20
67974;DHT22;54756;51.140;6.952;2023-01-20T10:11:12;3.20;76.50
67974;DHT22;54756;51.140;6.952;2023-01-20T10:13:23;3.20;76.10
67974;DHT22;54756;51.140;6.952;2023-01-20T10:15:27;3.20;76.70
67974;DHT22;54756;51.140;6.952;2023-01-20T10:17:42;3.30;77.40
67974;DHT22;54756;51.140;6.952;2023-01-20T10:24:28;3.50;74.90
67974;DHT22;54756;51.140;6.952;2023-01-20T10:26:31;3.50;74.60
67974;DHT22;54756;51.140;6.952;2023-01-20T10:28:38;3.50;74.80
67974;DHT22;54756;51.140;6.952;2023-01-20T10:30:40;3.50;75.00
67974;DHT22;54756;51.140;6.952;2023-01-20T10:32:51;3.50;74.40
67974;DHT22;54756;51.140;6.952;2023-01-20T10:34:56;3.50;74.40
67974;DHT22;54756;51.140;6.952;2023-01-20T10:37:05;3.60;73.80
67974;DHT22;54756;51.140;6.952;2023-01-20T10:39:37;3.60;73.90
67974;DHT22;54756;51.140;6.952;2023-01-20T10:41:53;3.60;74.10
67974;DHT22;54756;51.140;6.952;2023-01-20T10:43:55;3.70;73.20
67974;DHT22;54756;51.140;6.952;2023-01-20T10:53:36;3.80;73.50
67974;DHT22;54756;51.140;6.952;2023-01-20T10:57:49;3.90;74.30
67974;DHT22;54756;51.140;6.952;2023-01-20T10:59:58;3.90;74.70
67974;DHT22;54756;51.140;6.952;2023-01-20T11:02:09;3.90;73.70
67974;DHT22;54756;51.140;6.952;2023-01-20T11:04:17;3.80;73.50
67974;DHT22;54756;51.140;6.952;2023-01-20T11:06:20;3.70;73.30
67974;DHT22;54756;51.140;6.952;2023-01-20T11:08:24;3.70;73.70
67974;DHT22;54756;51.140;6.952;2023-01-20T11:10:27;3.70;73.60
67974;DHT22;54756;51.140;6.952;2023-01-20T11:12:31;3.70;73.70
67974;DHT22;54756;51.140;6.952;2023-01-20T11:14:35;3.60;73.90
67974;DHT22;54756;51.140;6.952;2023-01-20T11:16:36;3.60;73.70
67974;DHT22;54756;51.140;6.952;2023-01-20T11:18:37;3.60;74.40
67974;DHT22;54756;51.140;6.952;2023-01-20T11:26:14;3.70;75.10
67974;DHT22;54756;51.140;6.952;2023-01-20T11:28:17;3.90;74.70
67974;DHT22;54756;51.140;6.952;2023-01-20T11:30:23;4.00;73.50
67974;DHT22;54756;51.140;6.952;2023-01-20T11:32:36;4.10;71.80
67974;DHT22;54756;51.140;6.952;2023-01-20T11:34:47;4.20;72.80
67974;DHT22;54756;51.140;6.952;2023-01-20T11:36:50;4.30;70.90
67974;DHT22;54756;51.140;6.952;2023-01-20T11:38:51;4.40;69.30
67974;DHT22;54756;51.140;6.952;2023-01-20T11:40:54;4.50;69.40
67974;DHT22;54756;51.140;6.952;2023-01-20T11:42:55;4.60;68.50
67974;DHT22;54756;51.140;6.952;2023-01-20T11:44:58;4.70;70.20
67974;DHT22;54756;51.140;6.952;2023-01-20T11:47:28;4.80;66.30
67974;DHT22;54756;51.140;6.952;2023-01-20T11:49:29;4.90;68.20
67974;DHT22;54756;51.140;6.952;2023-01-20T11:51:29;5.00;65.20
67974;DHT22;54756;51.140;6.952;2023-01-20T11:53:32;5.00;65.80
67974;DHT22;54756;51.140;6.952;2023-01-20T11:55:58;5.00;64.20
67974;DHT22;54756;51.140;6.952;2023-01-20T11:58:01;5.00;65.50
67974;DHT22;54756;51.140;6.952;2023-01-20T12:00:03;5.00;62.20
67974;DHT22;54756;51.140;6.952;2023-01-20T12:06:25;4.80;61.50
67974;DHT22;54756;51.140;6.952;2023-01-20T12:10:48;4.70;64.10
67974;DHT22;54756;51.140;6.952;2023-01-20T12:12:53;4.80;64.20
67974;DHT22;54756;51.140;6.952;2023-01-20T12:17:24;4.70;64.40
67974;DHT22;54756;51.140;6.952;2023-01-20T12:19:47;4.70;62.50
67974;DHT22;54756;51.140;6.952;2023-01-20T12:21:54;4.60;60.40
67974;DHT22;54756;51.140;6.952;2023-01-20T12:26:05;4.50;61.00
67974;DHT22;54756;51.140;6.952;2023-01-20T12:28:17;4.40;62.80
67974;DHT22;54756;51.140;6.952;2023-01-20T12:32:49;4.40;62.80
67974;DHT22;54756;51.140;6.952;2023-01-20T12:34:50;4.20;62.50
67974;DHT22;54756;51.140;6.952;2023-01-20T12:41:16;4.00;64.70
67974;DHT22;54756;51.140;6.952;2023-01-20T12:43:26;3.90;64.90
67974;DHT22;54756;51.140;6.952;2023-01-20T12:56:03;3.70;68.60
67974;DHT22;54756;51.140;6.952;2023-01-20T13:00:33;3.60;69.30
67974;DHT22;54756;51.140;6.952;2023-01-20T13:15:01;3.40;73.30
67974;DHT22;54756;51.140;6.952;2023-01-20T13:17:22;3.40;73.60
67974;DHT22;54756;51.140;6.952;2023-01-20T13:19:28;3.40;73.60
67974;DHT22;54756;51.140;6.952;2023-01-20T13:21:32;3.40;74.00
67974;DHT22;54756;51.140;6.952;2023-01-20T13:23:34;3.40;74.30
67974;DHT22;54756;51.140;6.952;2023-01-20T13:25:37;3.50;74.20
67974;DHT22;54756;51.140;6.952;2023-01-20T13:27:40;3.50;74.60
67974;DHT22;54756;51.140;6.952;2023-01-20T13:31:50;3.50;75.00
67974;DHT22;54756;51.140;6.952;2023-01-20T13:33:52;3.50;75.40
67974;DHT22;54756;51.140;6.952;2023-01-20T13:35:53;3.50;76.50
67974;DHT22;54756;51.140;6.952;2023-01-20T13:37:59;3.50;77.10
67974;DHT22;54756;51.140;6.952;2023-01-20T13:40:00;3.60;77.70
67974;DHT22;54756;51.140;6.952;2023-01-20T13:42:01;3.60;78.10
67974;DHT22;54756;51.140;6.952;2023-01-20T13:44:32;3.60;78.60
67974;DHT22;54756;51.140;6.952;2023-01-20T13:48:36;3.80;79.10
67974;DHT22;54756;51.140;6.952;2023-01-20T13:50:42;3.80;79.20
67974;DHT22;54756;51.140;6.952;2023-01-20T13:53:04;3.90;79.70
67974;DHT22;54756;51.140;6.952;2023-01-20T13:55:28;3.90;79.50
67974;DHT22;54756;51.140;6.952;2023-01-20T13:57:33;4.00;79.50
67974;DHT22;54756;51.140;6.952;2023-01-20T13:59:34;4.00;79.90
67974;DHT22;54756;51.140;6.952;2023-01-20T14:01:36;4.00;79.70
67974;DHT22;54756;51.140;6.952;2023-01-20T14:03:39;4.00;79.50
67974;DHT22;54756;51.140;6.952;2023-01-20T14:05:40;3.90;79.40
67974;DHT22;54756;51.140;6.952;2023-01-20T14:07:43;3.90;80.40
67974;DHT22;54756;51.140;6.952;2023-01-20T14:09:56;3.80;81.10
67974;DHT22;54756;51.140;6.952;2023-01-20T14:11:57;3.70;80.50
67974;DHT22;54756;51.140;6.952;2023-01-20T14:14:01;3.60;81.30
67974;DHT22;54756;51.140;6.952;2023-01-20T14:16:02;3.50;81.20
67974;DHT22;54756;51.140;6.952;2023-01-20T14:18:03;3.40;81.70
67974;DHT22;54756;51.140;6.952;2023-01-20T14:20:19;3.30;82.80
67974;DHT22;54756;51.140;6.952;2023-01-20T14:22:25;3.20;83.20
67974;DHT22;54756;51.140;6.952;2023-01-20T14:24:31;3.10;83.30
67974;DHT22;54756;51.140;6.952;2023-01-20T14:26:32;3.10;84.50
67974;DHT22;54756;51.140;6.952;2023-01-20T14:28:33;3.10;84.70
67974;DHT22;54756;51.140;6.952;2023-01-20T14:30:34;3.10;85.00
67974;DHT22;54756;51.140;6.952;2023-01-20T14:32:35;3.00;84.90
67974;DHT22;54756;51.140;6.952;2023-01-20T14:34:36;3.00;85.10
67974;DHT22;54756;51.140;6.952;2023-01-20T14:36:37;3.00;85.00
67974;DHT22;54756;51.140;6.952;2023-01-20T14:38:38;2.90;85.40
67974;DHT22;54756;51.140;6.952;2023-01-20T14:40:39;2.90;85.60
67974;DHT22;54756;51.140;6.952;2023-01-20T14:43:38;2.90;85.80
67974;DHT22;54756;51.140;6.952;2023-01-20T14:45:19;2.90;85.20
67974;DHT22;54756;51.140;6.952;2023-01-20T14:47:21;2.80;85.30
67974;DHT22;54756;51.140;6.952;2023-01-20T14:49:27;2.80;85.50